Time;durP1;ratioP1;P1;durP2;ratioP2;P2;SDS_P1;SDS_P2;PMS_P1;PMS_P2;Temp;Humidity;BMP_temperature;BMP_pressure;BME280_temperature;BME280_humidity;BME280_pressure;Samples;Min_cycle;Max_cycle;Signal;HPM_P1;HPM_P2
2023/01/19 00:00:32;;;;;;;4.93;2.53;;;15.80;59.30;;;;;;5101844;28;20194;-46
2023/01/19 00:03:05;;;;;;;2.83;2.20;;;15.80;59.30;;;;;;5075224;28;20255;-46
2023/01/19 00:05:39;;;;;;;3.20;2.10;;;15.80;59.30;;;;;;5070877;28;20209;-46
2023/01/19 00:08:16;;;;;;;2.70;2.20;;;15.70;59.30;;;;;;5066580;28;20214;-46
2023/01/19 00:11:06;;;;;;;2.80;2.23;;;15.70;59.30;;;;;;5069481;28;20239;-46
2023/01/19 00:13:36;;;;;;;2.73;2.20;;;15.70;59.30;;;;;;5069519;28;20208;-46
2023/01/19 00:16:06;;;;;;;1.97;1.77;;;15.70;59.30;;;;;;5067637;28;20233;-46
2023/01/19 00:18:37;;;;;;;2.67;2.10;;;15.70;59.30;;;;;;5069083;28;20209;-46
2023/01/19 00:21:21;;;;;;;2.37;2.17;;;15.70;59.30;;;;;;5070558;28;20580;-46
2023/01/19 00:23:51;;;;;;;3.13;2.33;;;15.70;59.40;;;;;;5052319;28;20676;-46
2023/01/19 00:26:20;;;;;;;2.50;2.10;;;15.70;59.40;;;;;;5071249;28;20189;-46
2023/01/19 00:28:49;;;;;;;3.13;2.10;;;15.70;59.40;;;;;;5072043;28;20194;-46
2023/01/19 00:31:20;;;;;;;2.40;2.20;;;15.70;59.30;;;;;;5070569;28;20210;-46
2023/01/19 00:33:51;;;;;;;4.23;2.20;;;15.70;59.50;;;;;;5073425;28;20190;-46
2023/01/19 00:36:20;;;;;;;2.63;2.00;;;15.70;59.40;;;;;;5070717;28;20614;-46
2023/01/19 00:38:52;;;;;;;6.30;2.03;;;15.70;59.40;;;;;;5070295;28;20201;-46
2023/01/19 00:42:38;;;;;;;3.30;2.37;;;15.60;59.40;;;;;;5073556;28;20194;-46
2023/01/19 00:44:14;;;;;;;1.97;1.77;;;15.60;59.40;;;;;;5065795;28;20212;-46
2023/01/19 00:46:46;;;;;;;3.30;2.00;;;15.60;59.40;;;;;;5069975;28;20206;-46
2023/01/19 00:49:17;;;;;;;3.13;2.13;;;15.60;59.50;;;;;;5073755;28;20610;-46
2023/01/19 00:51:48;;;;;;;3.10;2.30;;;15.60;59.50;;;;;;5068204;28;20259;-46
2023/01/19 00:54:15;;;;;;;2.50;2.07;;;15.60;59.40;;;;;;5068080;27;20662;-46
2023/01/19 00:56:43;;;;;;;2.00;1.90;;;15.60;59.40;;;;;;5072165;28;20221;-46
2023/01/19 00:59:14;;;;;;;2.77;2.20;;;15.60;59.50;;;;;;5069828;28;20227;-46
2023/01/19 01:01:45;;;;;;;3.00;2.70;;;15.60;59.40;;;;;;5069713;28;20546;-46
2023/01/19 01:04:15;;;;;;;2.23;2.03;;;15.60;59.40;;;;;;5067849;28;20205;-46
2023/01/19 01:06:43;;;;;;;2.40;2.20;;;15.60;59.50;;;;;;5068314;28;20217;-46
2023/01/19 01:09:15;;;;;;;2.70;2.27;;;15.60;59.50;;;;;;5056937;28;20206;-46
2023/01/19 01:11:45;;;;;;;2.60;2.27;;;15.60;59.50;;;;;;5070496;28;20584;-46
2023/01/19 01:14:19;;;;;;;2.20;2.00;;;15.60;59.50;;;;;;5069621;28;20202;-46
2023/01/19 01:16:50;;;;;;;3.50;2.37;;;15.50;59.50;;;;;;5077739;28;20214;-46
2023/01/19 01:19:19;;;;;;;3.20;2.30;;;15.60;59.60;;;;;;5094633;28;20276;-46
2023/01/19 01:21:54;;;;;;;2.97;2.40;;;15.60;59.70;;;;;;5095550;28;20208;-46
2023/01/19 01:24:24;;;;;;;3.23;2.03;;;15.50;59.50;;;;;;5068849;28;20186;-46
2023/01/19 01:26:53;;;;;;;2.40;2.20;;;15.50;59.60;;;;;;5082001;28;20206;-46
2023/01/19 01:29:23;;;;;;;2.43;1.80;;;15.50;59.50;;;;;;5068345;28;20213;-46
2023/01/19 01:31:54;;;;;;;2.80;2.23;;;15.50;59.60;;;;;;5061715;28;20213;-46
2023/01/19 01:34:26;;;;;;;5.03;2.10;;;15.50;59.60;;;;;;5067496;28;20352;-46
2023/01/19 01:36:55;;;;;;;3.87;2.20;;;15.50;59.60;;;;;;5076151;28;20843;-46
2023/01/19 01:39:24;;;;;;;3.50;2.03;;;15.50;59.60;;;;;;5073442;28;20255;-46
2023/01/19 01:41:54;;;;;;;2.87;2.00;;;15.50;59.50;;;;;;5076962;28;20611;-46
2023/01/19 01:44:52;;;;;;;2.60;2.40;;;15.50;59.70;;;;;;5068703;28;20198;-46
2023/01/19 01:47:43;;;;;;;2.80;2.40;;;15.50;59.60;;;;;;5097782;27;20194;-46
2023/01/19 01:50:34;;;;;;;2.20;2.00;;;15.40;59.50;;;;;;5066543;28;20204;-46
2023/01/19 01:53:10;;;;;;;2.07;1.93;;;15.50;59.70;;;;;;5058115;28;20782;-46
2023/01/19 01:55:46;;;;;;;2.83;2.50;;;15.40;59.60;;;;;;5066344;28;20212;-46
2023/01/19 01:58:19;;;;;;;4.13;2.67;;;15.40;59.60;;;;;;5067726;28;20212;-46
2023/01/19 02:03:38;;;;;;;2.60;2.00;;;15.40;59.70;;;;;;5070492;28;20194;-46
2023/01/19 02:06:10;;;;;;;2.90;2.33;;;15.40;59.60;;;;;;5059455;28;20229;-46
2023/01/19 02:14:28;;;;;;;2.40;2.20;;;15.40;59.60;;;;;;5087329;28;20204;-46
2023/01/19 02:16:57;;;;;;;2.33;2.13;;;15.40;59.70;;;;;;5070589;28;20225;-46
2023/01/19 02:19:48;;;;;;;3.20;2.23;;;15.40;59.70;;;;;;5067380;28;20198;-46
2023/01/19 02:22:34;;;;;;;3.10;2.30;;;15.40;59.60;;;;;;5058117;28;20695;-46
2023/01/19 02:25:11;;;;;;;2.23;2.00;;;15.40;59.70;;;;;;5076314;28;20186;-46
2023/01/19 02:27:43;;;;;;;2.60;2.23;;;15.30;59.70;;;;;;5067947;28;20197;-46
2023/01/19 02:30:13;;;;;;;3.03;2.40;;;15.30;59.70;;;;;;5051730;27;20205;-46
2023/01/19 02:32:43;;;;;;;2.40;1.90;;;15.40;59.80;;;;;;5073705;28;20228;-46
2023/01/19 02:35:14;;;;;;;3.30;2.07;;;15.40;59.90;;;;;;5072349;28;20929;-46
2023/01/19 02:37:55;;;;;;;2.47;2.10;;;15.30;59.80;;;;;;5064559;28;20213;-46
2023/01/19 02:40:27;;;;;;;3.73;2.10;;;15.40;59.70;;;;;;5068195;28;20194;-46
2023/01/19 02:42:59;;;;;;;2.23;2.03;;;15.30;59.80;;;;;;5066789;28;20201;-46
2023/01/19 02:45:31;;;;;;;2.80;2.30;;;15.30;59.60;;;;;;5066295;28;20193;-46
2023/01/19 02:48:01;;;;;;;2.23;1.83;;;15.30;59.60;;;;;;5074891;28;20228;-46
2023/01/19 02:50:45;;;;;;;2.13;1.90;;;15.30;59.60;;;;;;5067047;28;20206;-46
2023/01/19 02:53:55;;;;;;;2.13;1.93;;;15.30;59.70;;;;;;5063522;28;20202;-46
2023/01/19 02:56:48;;;;;;;2.07;1.83;;;15.30;59.70;;;;;;5067849;28;20292;-46
2023/01/19 02:59:57;;;;;;;2.27;1.90;;;15.30;59.80;;;;;;5055379;28;20209;-45
2023/01/19 03:03:01;;;;;;;3.87;1.90;;;15.30;59.90;;;;;;5040891;28;20202;-46
2023/01/19 03:05:57;;;;;;;3.53;2.30;;;15.30;59.80;;;;;;5030552;28;20190;-46
2023/01/19 03:08:55;;;;;;;2.90;2.27;;;15.30;59.80;;;;;;5039909;28;20199;-46
2023/01/19 03:11:30;;;;;;;2.00;1.90;;;15.20;59.80;;;;;;5018172;28;20692;-46
2023/01/19 03:14:13;;;;;;;1.83;1.63;;;15.30;59.90;;;;;;5058793;28;20217;-46
2023/01/19 03:16:54;;;;;;;2.23;1.90;;;15.20;59.90;;;;;;5031865;28;20421;-46
2023/01/19 03:19:56;;;;;;;2.43;2.10;;;15.30;59.80;;;;;;5007660;28;20718;-46
2023/01/19 03:22:32;;;;;;;2.27;2.07;;;15.30;59.80;;;;;;4972107;28;20207;-46
2023/01/19 03:25:00;;;;;;;2.20;1.90;;;15.20;59.90;;;;;;5020673;28;20624;-46
2023/01/19 03:27:39;;;;;;;3.77;2.10;;;15.20;59.90;;;;;;5026115;28;20211;-46
2023/01/19 03:30:19;;;;;;;2.93;2.37;;;15.20;59.90;;;;;;5029820;28;20706;-46
2023/01/19 03:33:03;;;;;;;2.40;2.10;;;15.20;59.80;;;;;;5019663;28;20199;-46
2023/01/19 03:35:38;;;;;;;3.10;1.80;;;15.20;59.90;;;;;;4999693;28;20214;-46
2023/01/19 03:38:12;;;;;;;2.43;1.80;;;15.20;59.90;;;;;;5025248;28;20642;-46
2023/01/19 03:40:41;;;;;;;2.60;2.00;;;15.20;59.80;;;;;;5042326;28;20221;-46
2023/01/19 03:43:12;;;;;;;2.43;1.77;;;15.20;59.90;;;;;;5024606;28;20219;-46
2023/01/19 03:45:44;;;;;;;1.70;1.60;;;15.20;59.90;;;;;;5038760;28;20546;-45
2023/01/19 03:48:16;;;;;;;2.03;1.60;;;15.20;59.90;;;;;;5036349;28;20658;-46
2023/01/19 03:50:46;;;;;;;2.47;1.80;;;15.20;59.90;;;;;;5030825;28;20632;-46
2023/01/19 03:53:23;;;;;;;2.30;1.93;;;15.20;59.90;;;;;;5037736;28;20246;-46
2023/01/19 03:55:53;;;;;;;2.53;1.80;;;15.20;59.90;;;;;;5022086;28;20222;-46
2023/01/19 03:58:27;;;;;;;1.80;1.70;;;15.20;59.90;;;;;;5027614;28;20268;-46
2023/01/19 04:00:56;;;;;;;3.33;1.90;;;15.10;59.90;;;;;;5015658;28;20188;-46
2023/01/19 04:03:27;;;;;;;2.00;1.80;;;15.20;59.90;;;;;;5031691;28;20183;-46
2023/01/19 04:05:56;;;;;;;2.20;1.60;;;15.10;59.90;;;;;;5022399;28;20210;-46
2023/01/19 04:08:26;;;;;;;2.40;2.20;;;15.20;59.90;;;;;;5036608;28;20648;-46
2023/01/19 04:10:59;;;;;;;2.27;1.70;;;15.10;59.90;;;;;;5031079;28;20214;-46
2023/01/19 04:13:29;;;;;;;1.80;1.70;;;15.10;59.90;;;;;;5027523;28;20245;-46
2023/01/19 04:16:04;;;;;;;3.57;2.33;;;15.10;60.00;;;;;;5041094;28;20234;-46
2023/01/19 04:18:39;;;;;;;2.43;1.70;;;15.10;59.90;;;;;;5053358;28;20301;-46
2023/01/19 04:21:11;;;;;;;3.90;1.70;;;15.10;59.90;;;;;;5077411;28;20729;-45
2023/01/19 04:23:43;;;;;;;2.17;1.70;;;15.10;60.00;;;;;;5079110;28;20552;-48
2023/01/19 04:26:11;;;;;;;1.83;1.67;;;15.10;59.90;;;;;;5068593;28;20314;-46
2023/01/19 04:28:43;;;;;;;1.73;1.63;;;15.10;60.00;;;;;;5084394;28;20193;-46
2023/01/19 04:31:09;;;;;;;1.63;1.50;;;15.10;59.90;;;;;;5068692;28;20216;-46
2023/01/19 04:33:41;;;;;;;1.77;1.60;;;15.10;59.90;;;;;;5070677;28;20189;-46
2023/01/19 04:36:08;;;;;;;1.70;1.60;;;15.10;60.00;;;;;;5079214;28;20266;-46
2023/01/19 04:38:40;;;;;;;2.43;1.67;;;15.10;60.00;;;;;;5078767;28;20661;-46
2023/01/19 04:41:10;;;;;;;3.20;1.60;;;15.10;60.00;;;;;;5073786;28;20584;-46
2023/01/19 04:43:40;;;;;;;1.87;1.60;;;15.10;60.00;;;;;;5068483;28;20213;-46
2023/01/19 04:46:12;;;;;;;2.20;1.80;;;15.10;59.90;;;;;;5068933;28;20391;-46
2023/01/19 04:48:44;;;;;;;1.43;1.33;;;15.10;60.00;;;;;;5107292;27;20558;-46
2023/01/19 04:51:13;;;;;;;2.10;1.60;;;15.10;60.00;;;;;;5071868;28;20192;-46
2023/01/19 04:53:45;;;;;;;1.87;1.50;;;15.10;60.30;;;;;;5065342;28;20713;-46
2023/01/19 04:56:12;;;;;;;2.30;1.33;;;15.10;60.00;;;;;;5066674;27;20205;-46
2023/01/19 04:58:49;;;;;;;2.03;1.83;;;15.10;60.00;;;;;;5073530;28;20208;-46
2023/01/19 05:01:19;;;;;;;3.20;1.53;;;15.10;60.10;;;;;;5079377;28;20201;-46
2023/01/19 05:03:46;;;;;;;1.90;1.30;;;15.10;60.00;;;;;;5064121;28;20243;-46
2023/01/19 05:06:18;;;;;;;1.70;1.20;;;15.10;60.00;;;;;;5069725;27;20214;-46
2023/01/19 05:08:53;;;;;;;4.10;1.50;;;15.00;60.00;;;;;;5068975;28;20189;-46
2023/01/19 05:11:23;;;;;;;2.67;1.20;;;15.00;60.00;;;;;;5070502;28;20213;-45
2023/01/19 05:13:55;;;;;;;1.57;1.40;;;15.00;60.00;;;;;;5067844;28;20201;-46
2023/01/19 05:16:26;;;;;;;1.40;1.13;;;15.00;60.10;;;;;;5084619;28;20847;-46
2023/01/19 05:18:54;;;;;;;1.30;1.10;;;15.00;60.00;;;;;;5072978;28;20240;-46
2023/01/19 05:21:26;;;;;;;2.03;1.20;;;15.00;60.00;;;;;;5081826;28;20209;-46
2023/01/19 05:23:56;;;;;;;2.07;1.20;;;15.00;60.00;;;;;;5069372;28;20247;-46
2023/01/19 05:26:25;;;;;;;1.57;1.40;;;15.00;60.00;;;;;;5065608;28;20666;-46
2023/01/19 05:28:53;;;;;;;2.63;1.30;;;15.00;60.00;;;;;;5079703;28;20194;-46
2023/01/19 05:31:24;;;;;;;1.37;1.27;;;15.00;60.00;;;;;;5067541;28;20214;-46
2023/01/19 05:33:57;;;;;;;0.90;0.80;;;15.00;60.00;;;;;;5078331;28;20212;-46
2023/01/19 05:36:28;;;;;;;2.13;1.17;;;15.00;60.00;;;;;;5073150;28;20212;-46
2023/01/19 05:39:00;;;;;;;1.17;1.00;;;15.00;60.00;;;;;;5068822;28;20804;-46
2023/01/19 05:41:31;;;;;;;3.33;1.33;;;15.00;60.00;;;;;;5069642;28;20189;-46
2023/01/19 05:44:03;;;;;;;1.40;1.20;;;15.00;60.00;;;;;;5062834;28;20555;-46
2023/01/19 05:46:34;;;;;;;1.63;1.00;;;15.00;60.00;;;;;;5069372;28;20193;-46
2023/01/19 05:49:03;;;;;;;1.90;1.17;;;15.00;60.00;;;;;;5067505;28;20216;-46
2023/01/19 05:51:36;;;;;;;1.30;1.10;;;15.00;60.00;;;;;;5070564;28;20648;-46
2023/01/19 05:54:09;;;;;;;1.33;0.90;;;15.00;60.00;;;;;;5064858;28;20201;-46
2023/01/19 05:56:39;;;;;;;0.90;0.90;;;15.00;59.90;;;;;;5065186;28;20198;-46
2023/01/19 05:59:07;;;;;;;1.50;1.07;;;15.00;59.80;;;;;;5061056;28;20227;-46
2023/01/19 06:01:39;;;;;;;1.40;0.93;;;15.00;59.80;;;;;;5068197;28;20209;-46
2023/01/19 06:04:08;;;;;;;0.90;0.90;;;15.00;59.70;;;;;;5065914;28;20829;-46
2023/01/19 06:06:39;;;;;;;0.80;0.80;;;15.00;59.70;;;;;;5077355;28;20209;-46
2023/01/19 06:09:11;;;;;;;1.10;0.73;;;15.00;59.70;;;;;;5068213;28;20660;-46
2023/01/19 06:11:41;;;;;;;6.43;0.97;;;15.00;59.60;;;;;;5070670;28;20194;-46
2023/01/19 06:14:11;;;;;;;1.00;1.00;;;14.90;59.60;;;;;;5056838;28;20376;-46
2023/01/19 06:16:42;;;;;;;1.97;0.90;;;14.90;59.50;;;;;;5067922;28;20241;-46
2023/01/19 06:19:12;;;;;;;6.70;1.00;;;14.90;59.50;;;;;;5067886;28;20234;-46
2023/01/19 06:21:48;;;;;;;1.30;1.00;;;14.90;59.50;;;;;;5086684;28;20201;-46
2023/01/19 06:24:18;;;;;;;1.43;1.00;;;14.90;59.40;;;;;;5068347;28;20196;-46
2023/01/19 06:26:50;;;;;;;1.77;1.10;;;15.00;59.30;;;;;;5064675;28;20197;-46
2023/01/19 06:29:22;;;;;;;1.20;1.10;;;14.90;59.30;;;;;;5068796;28;20267;-46
2023/01/19 06:31:56;;;;;;;4.33;1.20;;;14.90;59.30;;;;;;5065760;28;20203;-46
2023/01/19 06:34:28;;;;;;;2.27;1.10;;;14.90;59.30;;;;;;5067476;28;20278;-46
2023/01/19 06:36:55;;;;;;;3.70;1.20;;;14.90;59.30;;;;;;5073776;28;20302;-45
2023/01/19 06:39:26;;;;;;;5.83;1.40;;;14.90;59.40;;;;;;5070847;28;20221;-46
2023/01/19 06:41:56;;;;;;;1.57;0.97;;;14.90;59.40;;;;;;5069081;28;20201;-46
2023/01/19 06:44:28;;;;;;;1.87;1.20;;;14.90;59.30;;;;;;5068343;28;20700;-46
2023/01/19 06:46:58;;;;;;;4.90;1.60;;;14.90;59.30;;;;;;5064921;28;20715;-46
2023/01/19 06:49:44;;;;;;;157.67;32.33;;;14.90;59.20;;;;;;5067121;28;20533;-46
2023/01/19 06:52:18;;;;;;;175.07;37.03;;;14.90;59.50;;;;;;5070490;28;20208;-45
2023/01/19 06:54:47;;;;;;;176.07;37.73;;;14.90;59.50;;;;;;5065850;28;20646;-46
2023/01/19 06:57:19;;;;;;;220.30;50.93;;;14.90;59.50;;;;;;5068446;28;20572;-46
2023/01/19 06:59:48;;;;;;;220.70;49.10;;;14.90;59.90;;;;;;5066620;28;20220;-46
2023/01/19 07:02:22;;;;;;;214.63;49.47;;;14.80;60.00;;;;;;5067170;28;20205;-46
2023/01/19 07:04:56;;;;;;;218.43;47.47;;;14.90;60.00;;;;;;5066225;28;20502;-46
2023/01/19 07:07:25;;;;;;;182.77;44.47;;;14.90;59.90;;;;;;5062651;28;20296;-46
2023/01/19 07:09:55;;;;;;;187.50;44.67;;;14.80;59.70;;;;;;5064415;28;20282;-46
2023/01/19 07:12:23;;;;;;;174.93;42.50;;;14.80;59.60;;;;;;5066517;28;20273;-46
2023/01/19 07:14:55;;;;;;;159.47;40.63;;;14.80;59.50;;;;;;5068163;28;20688;-46
2023/01/19 07:17:30;;;;;;;157.77;39.50;;;14.80;59.40;;;;;;5068853;28;20229;-46
2023/01/19 07:20:00;;;;;;;150.77;39.20;;;14.80;59.30;;;;;;5066439;28;20213;-46
2023/01/19 07:22:29;;;;;;;141.63;35.60;;;14.80;59.20;;;;;;5086620;28;20673;-48
2023/01/19 07:25:01;;;;;;;138.57;35.47;;;14.80;59.10;;;;;;5067660;28;20224;-48
2023/01/19 07:28:04;;;;;;;116.57;33.00;;;14.80;59.10;;;;;;5093271;28;20328;-45
2023/01/19 07:30:57;;;;;;;127.93;33.27;;;14.80;59.10;;;;;;5062578;28;20217;-48
2023/01/19 07:33:35;;;;;;;115.60;31.70;;;14.80;59.10;;;;;;5057484;28;20200;-49
2023/01/19 07:36:05;;;;;;;101.60;28.00;;;14.80;59.00;;;;;;5076171;28;20218;-47
2023/01/19 07:38:38;;;;;;;104.07;28.17;;;14.80;58.90;;;;;;5068255;28;20237;-45
2023/01/19 07:41:11;;;;;;;95.13;27.53;;;14.80;59.00;;;;;;5076994;28;20207;-48
2023/01/19 07:43:43;;;;;;;83.60;25.53;;;14.80;58.90;;;;;;5068150;28;20217;-49
2023/01/19 07:46:24;;;;;;;83.97;23.23;;;14.80;58.80;;;;;;5064185;28;20611;-46
2023/01/19 07:48:53;;;;;;;77.00;23.30;;;14.80;58.90;;;;;;5067397;28;20201;-45
2023/01/19 07:51:27;;;;;;;78.90;22.30;;;14.80;58.90;;;;;;5076788;28;20518;-48
2023/01/19 07:53:57;;;;;;;71.47;22.27;;;14.80;58.80;;;;;;5064488;28;20193;-48
2023/01/19 07:56:29;;;;;;;69.00;20.63;;;14.70;58.80;;;;;;5079033;28;20213;-46
2023/01/19 07:59:02;;;;;;;61.10;19.17;;;14.80;58.80;;;;;;5070449;28;20213;-45
2023/01/19 08:01:34;;;;;;;57.87;18.33;;;14.80;58.70;;;;;;5091801;28;20292;-49
2023/01/19 08:04:03;;;;;;;55.83;17.60;;;14.80;58.70;;;;;;5054225;28;20239;-49
2023/01/19 08:06:36;;;;;;;54.90;18.27;;;14.80;58.60;;;;;;5080436;28;20525;-45
2023/01/19 08:09:10;;;;;;;53.80;16.83;;;14.80;58.70;;;;;;5082904;28;20220;-45
2023/01/19 08:11:39;;;;;;;48.03;15.97;;;14.70;58.60;;;;;;5067327;28;20205;-49
2023/01/19 08:14:20;;;;;;;46.87;15.13;;;14.70;58.70;;;;;;5070033;28;20288;-49
2023/01/19 08:16:48;;;;;;;46.43;15.33;;;14.70;58.50;;;;;;5080986;28;20237;-46
2023/01/19 08:19:20;;;;;;;45.23;14.60;;;14.70;58.50;;;;;;5076238;28;20233;-46
2023/01/19 08:21:51;;;;;;;39.80;13.60;;;14.70;58.50;;;;;;5082180;28;20259;-45
2023/01/19 08:24:27;;;;;;;39.50;13.03;;;14.70;58.50;;;;;;5069748;28;20550;-46
2023/01/19 08:27:00;;;;;;;35.57;13.47;;;14.70;58.50;;;;;;5059567;28;20197;-46
2023/01/19 08:29:30;;;;;;;35.87;12.13;;;14.70;58.50;;;;;;5069340;28;20275;-46
2023/01/19 08:32:06;;;;;;;35.43;11.80;;;14.70;58.50;;;;;;5073287;28;20365;-45
2023/01/19 08:34:36;;;;;;;25.77;10.40;;;14.70;58.50;;;;;;5070134;28;20208;-46
2023/01/19 08:37:07;;;;;;;35.30;11.53;;;14.70;58.40;;;;;;5077667;28;20762;-46
2023/01/19 08:39:37;;;;;;;28.83;10.57;;;14.70;58.40;;;;;;5070102;28;20217;-46
2023/01/19 08:42:06;;;;;;;29.63;9.73;;;14.70;58.50;;;;;;5071750;27;20682;-50
2023/01/19 08:44:37;;;;;;;24.80;9.67;;;14.70;58.40;;;;;;5058801;28;20206;-50
2023/01/19 08:47:16;;;;;;;26.70;10.00;;;14.70;58.40;;;;;;5075333;28;20212;-46
2023/01/19 08:49:45;;;;;;;26.47;9.30;;;14.70;58.40;;;;;;5070379;28;20186;-47
2023/01/19 08:52:14;;;;;;;20.77;8.80;;;14.70;58.40;;;;;;5070477;28;20338;-48
2023/01/19 08:54:44;;;;;;;25.43;9.83;;;14.70;58.40;;;;;;5068292;28;20648;-48
2023/01/19 08:57:14;;;;;;;18.23;8.73;;;14.70;58.30;;;;;;5070050;28;20216;-50
2023/01/19 08:59:46;;;;;;;22.63;8.83;;;14.70;58.30;;;;;;5069775;28;20576;-50
2023/01/19 09:02:16;;;;;;;21.57;8.40;;;14.70;58.30;;;;;;5069050;28;20625;-50
2023/01/19 09:04:48;;;;;;;22.73;7.87;;;14.70;58.40;;;;;;5070606;28;20773;-50
2023/01/19 09:07:19;;;;;;;19.33;7.67;;;14.70;58.40;;;;;;5055254;28;20209;-50
2023/01/19 09:09:47;;;;;;;17.33;6.87;;;14.70;58.30;;;;;;5068328;28;20632;-50
2023/01/19 09:12:18;;;;;;;21.23;7.77;;;14.70;58.30;;;;;;5070548;28;20193;-47
2023/01/19 09:15:02;;;;;;;14.73;6.90;;;14.70;58.30;;;;;;5072605;28;20633;-47
2023/01/19 09:17:29;;;;;;;14.80;6.47;;;14.70;58.90;;;;;;5069048;28;20259;-50
2023/01/19 09:20:03;;;;;;;13.20;6.73;;;14.70;58.30;;;;;;5082550;28;20225;-50
2023/01/19 09:22:38;;;;;;;15.53;7.00;;;14.70;58.30;;;;;;5078575;28;20258;-50
2023/01/19 09:25:13;;;;;;;14.93;6.97;;;14.70;58.30;;;;;;5068700;28;20197;-50
2023/01/19 09:27:43;;;;;;;12.17;6.00;;;14.70;58.20;;;;;;5069873;28;20190;-50
2023/01/19 09:30:12;;;;;;;14.17;6.27;;;14.70;58.30;;;;;;5066559;28;20198;-50
2023/01/19 09:32:41;;;;;;;11.63;5.43;;;14.70;58.20;;;;;;5069840;28;20630;-50
2023/01/19 09:35:14;;;;;;;10.73;6.27;;;14.70;58.30;;;;;;5070420;28;20198;-47
2023/01/19 09:37:48;;;;;;;13.63;5.90;;;14.70;58.30;;;;;;5071981;28;20194;-46
2023/01/19 09:40:19;;;;;;;10.87;5.60;;;14.70;58.30;;;;;;5069101;28;20205;-47
2023/01/19 09:43:46;;;;;;;10.27;5.13;;;14.70;58.30;;;;;;5067779;28;20210;-50
2023/01/19 09:46:49;;;;;;;11.23;6.17;;;14.70;58.30;;;;;;5003859;28;20203;-50
2023/01/19 09:49:39;;;;;;;12.17;5.67;;;14.60;58.30;;;;;;5100068;28;20194;-50
2023/01/19 09:52:14;;;;;;;14.80;6.00;;;14.60;58.40;;;;;;5075184;28;20527;-47
2023/01/19 09:54:58;;;;;;;9.87;5.20;;;14.60;58.30;;;;;;5076006;28;20213;-47
2023/01/19 09:57:43;;;;;;;10.40;5.93;;;14.70;58.30;;;;;;5057898;28;20197;-47
2023/01/19 10:00:17;;;;;;;9.80;5.53;;;14.60;58.20;;;;;;5069534;28;20210;-47
2023/01/19 10:03:00;;;;;;;10.10;4.80;;;14.60;58.20;;;;;;5069352;28;20197;-46
2023/01/19 10:05:59;;;;;;;9.83;5.07;;;14.60;58.30;;;;;;5078769;28;20186;-49
2023/01/19 10:08:43;;;;;;;11.77;6.07;;;14.70;58.30;;;;;;5064704;28;20198;-49
2023/01/19 10:11:35;;;;;;;9.73;4.93;;;14.60;58.20;;;;;;5066556;28;20200;-49
2023/01/19 10:14:27;;;;;;;10.00;5.37;;;14.60;58.30;;;;;;5061369;28;20200;-50
2023/01/19 10:17:27;;;;;;;8.90;5.20;;;14.60;58.20;;;;;;5067306;28;20361;-49
2023/01/19 10:20:00;;;;;;;9.20;5.13;;;14.70;58.30;;;;;;5062998;28;20229;-49
2023/01/19 10:22:35;;;;;;;7.80;4.23;;;14.60;58.30;;;;;;5068546;28;20189;-50
2023/01/19 10:25:16;;;;;;;9.37;5.43;;;14.60;58.30;;;;;;5055007;28;20302;-50
2023/01/19 10:27:48;;;;;;;8.37;5.23;;;14.60;58.30;;;;;;5062087;28;20193;-50
2023/01/19 10:30:29;;;;;;;6.93;5.00;;;14.60;58.20;;;;;;5076293;28;20206;-46
2023/01/19 10:33:04;;;;;;;8.73;4.40;;;14.60;58.20;;;;;;5067761;28;20288;-46
2023/01/19 10:35:36;;;;;;;6.50;4.67;;;14.60;58.20;;;;;;5068773;28;20193;-46
2023/01/19 10:38:13;;;;;;;8.50;5.03;;;14.60;58.20;;;;;;5053910;28;20209;-46
2023/01/19 10:41:10;;;;;;;8.63;5.40;;;14.60;58.10;;;;;;5073095;28;20212;-46
2023/01/19 10:43:47;;;;;;;8.70;4.97;;;14.70;58.10;;;;;;5075519;28;20232;-46
2023/01/19 10:46:39;;;;;;;7.77;4.43;;;14.70;58.00;;;;;;5067423;28;20212;-46
2023/01/19 10:49:38;;;;;;;7.80;4.80;;;14.60;57.90;;;;;;5067855;28;20705;-47
2023/01/19 10:52:23;;;;;;;6.80;4.60;;;14.70;58.00;;;;;;5058120;28;20209;-46
2023/01/19 10:54:59;;;;;;;6.83;4.70;;;14.60;58.00;;;;;;5066304;28;20217;-46
2023/01/19 10:57:44;;;;;;;9.10;5.07;;;14.70;58.10;;;;;;5067889;28;20210;-47
2023/01/19 11:00:49;;;;;;;7.40;5.00;;;14.60;58.00;;;;;;5070757;28;20487;-46
2023/01/19 11:03:31;;;;;;;11.07;5.07;;;14.60;57.90;;;;;;5066246;28;20205;-46
2023/01/19 11:06:25;;;;;;;6.63;4.50;;;14.70;58.00;;;;;;5066773;28;20258;-50
2023/01/19 11:09:19;;;;;;;5.10;4.13;;;14.60;57.90;;;;;;5054320;28;20202;-50
2023/01/19 11:11:51;;;;;;;5.50;4.03;;;14.60;58.00;;;;;;5066296;28;20194;-46
2023/01/19 11:14:25;;;;;;;7.57;4.87;;;14.60;57.90;;;;;;5074983;28;20189;-46
2023/01/19 11:16:56;;;;;;;5.50;4.03;;;14.60;58.00;;;;;;5065863;28;20257;-46
2023/01/19 11:19:51;;;;;;;6.17;4.13;;;14.60;58.00;;;;;;5064760;28;20224;-46
2023/01/19 11:22:25;;;;;;;6.53;5.17;;;14.60;57.80;;;;;;5062007;28;20263;-50
2023/01/19 11:25:04;;;;;;;6.53;4.20;;;14.60;57.80;;;;;;5069795;28;20185;-49
2023/01/19 11:27:37;;;;;;;5.63;4.83;;;14.60;57.80;;;;;;5085342;28;20246;-49
2023/01/19 11:30:23;;;;;;;7.83;4.80;;;14.60;57.70;;;;;;5051445;28;20797;-49
2023/01/19 11:32:55;;;;;;;7.73;4.53;;;14.60;57.70;;;;;;5058275;28;20223;-49
2023/01/19 11:35:40;;;;;;;5.93;4.10;;;14.60;57.80;;;;;;5080818;28;20551;-46
2023/01/19 11:38:18;;;;;;;5.03;4.27;;;14.60;57.70;;;;;;5089119;28;20522;-46
2023/01/19 11:40:56;;;;;;;7.63;5.00;;;14.60;57.70;;;;;;5086190;28;20658;-46
2023/01/19 11:43:28;;;;;;;8.53;4.57;;;14.70;57.70;;;;;;5068310;28;20197;-46
2023/01/19 11:46:17;;;;;;;4.67;4.10;;;14.60;57.70;;;;;;5070111;28;20243;-49
2023/01/19 11:48:56;;;;;;;5.77;4.30;;;14.60;57.70;;;;;;5070311;28;20550;-49
2023/01/19 11:52:02;;;;;;;5.80;4.50;;;14.60;57.70;;;;;;5072299;28;20206;-49
2023/01/19 11:54:46;;;;;;;4.70;4.00;;;14.70;57.80;;;;;;5058740;28;20766;-49
2023/01/19 11:57:20;;;;;;;8.10;4.57;;;14.60;57.80;;;;;;5073878;28;20298;-46
2023/01/19 12:00:16;;;;;;;4.67;4.13;;;14.60;57.70;;;;;;5067247;28;20249;-46
2023/01/19 12:02:49;;;;;;;6.10;3.90;;;14.60;57.70;;;;;;5063762;28;20193;-46
2023/01/19 12:05:36;;;;;;;6.30;4.10;;;14.60;57.70;;;;;;5071088;28;20226;-45
2023/01/19 12:08:13;;;;;;;5.50;4.27;;;14.60;57.70;;;;;;5080490;28;20209;-46
2023/01/19 12:10:45;;;;;;;5.90;4.20;;;14.60;57.70;;;;;;5091790;28;20258;-49
2023/01/19 12:13:35;;;;;;;5.60;4.37;;;14.60;57.60;;;;;;5075861;28;20213;-49
2023/01/19 12:16:22;;;;;;;4.97;4.07;;;14.60;57.60;;;;;;5069807;28;20291;-50
2023/01/19 12:19:34;;;;;;;5.40;4.17;;;14.60;57.60;;;;;;5096271;28;20212;-49
2023/01/19 12:22:05;;;;;;;5.53;4.20;;;14.60;57.60;;;;;;4979305;28;20208;-49
2023/01/19 12:24:45;;;;;;;5.43;3.97;;;14.60;57.70;;;;;;4979805;28;20212;-49
2023/01/19 12:27:48;;;;;;;5.63;3.67;;;14.60;57.70;;;;;;4993743;28;20413;-49
2023/01/19 12:30:37;;;;;;;5.10;3.50;;;14.60;57.70;;;;;;5054411;28;20213;-46
2023/01/19 12:33:33;;;;;;;6.03;4.27;;;14.60;57.80;;;;;;5074853;28;20197;-46
2023/01/19 12:36:37;;;;;;;5.13;3.60;;;14.60;57.70;;;;;;5097443;28;20198;-49
2023/01/19 12:39:25;;;;;;;5.70;3.80;;;14.60;57.80;;;;;;5070649;28;20538;-49
2023/01/19 12:42:16;;;;;;;5.73;4.40;;;14.60;57.90;;;;;;5067303;28;20190;-45
2023/01/19 12:45:16;;;;;;;5.87;3.77;;;14.60;57.90;;;;;;5059816;28;20193;-46
2023/01/19 12:47:55;;;;;;;4.67;3.70;;;14.60;57.90;;;;;;5073567;28;20540;-49
2023/01/19 12:50:28;;;;;;;4.27;3.33;;;14.60;57.90;;;;;;5069549;28;20216;-49
2023/01/19 12:53:02;;;;;;;4.43;3.63;;;14.60;57.90;;;;;;5070794;28;20204;-49
2023/01/19 12:55:36;;;;;;;4.33;3.50;;;14.60;58.00;;;;;;5068065;28;20210;-48
2023/01/19 12:58:22;;;;;;;4.30;3.57;;;14.60;57.90;;;;;;5066715;28;20201;-48
2023/01/19 13:01:14;;;;;;;5.17;3.90;;;14.60;57.90;;;;;;5057366;28;20248;-46
2023/01/19 13:04:13;;;;;;;4.57;3.50;;;14.60;57.90;;;;;;5086450;28;20194;-46
2023/01/19 13:07:04;;;;;;;7.77;3.80;;;14.60;58.00;;;;;;5045607;28;20284;-45
2023/01/19 13:09:38;;;;;;;4.77;3.83;;;14.60;58.00;;;;;;5070346;28;20706;-45
2023/01/19 13:12:20;;;;;;;5.57;3.80;;;14.60;58.00;;;;;;5081056;28;20196;-45
2023/01/19 13:15:27;;;;;;;4.53;3.67;;;14.60;57.90;;;;;;5066322;28;20271;-46
2023/01/19 13:17:57;;;;;;;4.93;3.53;;;14.60;58.00;;;;;;5064332;28;20221;-45
2023/01/19 13:20:51;;;;;;;4.60;3.63;;;14.60;58.00;;;;;;5088415;28;20229;-48
2023/01/19 13:23:22;;;;;;;6.13;4.20;;;14.60;58.00;;;;;;5071085;28;20205;-48
2023/01/19 13:26:12;;;;;;;4.03;3.30;;;14.60;58.10;;;;;;5079785;28;20197;-48
2023/01/19 13:28:42;;;;;;;3.60;2.93;;;14.60;58.10;;;;;;5059794;28;20189;-48
2023/01/19 13:31:14;;;;;;;4.40;3.47;;;14.60;58.00;;;;;;5067890;28;20853;-49
2023/01/19 13:33:57;;;;;;;3.90;3.50;;;14.60;58.10;;;;;;5069862;28;20185;-49
2023/01/19 13:36:40;;;;;;;5.50;3.67;;;14.60;58.10;;;;;;5071243;28;20555;-48
2023/01/19 13:39:23;;;;;;;4.43;3.93;;;14.60;58.10;;;;;;5068408;28;20563;-48